Decoded Metar for LKNA (NAMEST in CZECH REPUBLIC) (IATA:N/A) | Meteo·Mobile Aviation Weather
aviador You're here:

LKNA Decoded Metar

NAMEST in CZECH REPUBLIC
Report Time2019-04-25 21:00:00
UTC Time2019-04-25 22:05:51
Flight Rules vfr VFR
Wind100° at 10 kt
W.Decomp.*RWY 13: 8.4 kt HW 5.4 kt LCW
Visibility9999 m
Phenomena:N/A
Clouds:N/A
Expected CloudBase > 4,000 ft AGL from Temp-Dew spread
CeilingNone
Temp17°C (ISA +5)
Dew Point07°C (52% RH)
AAT12.7°C
QNH1011 hPa
Density Alt2,352 ft
Elevation1,549 ft
Report Wrong Elevation
Raw Report
LKNA 252100Z 10010KT CAVOK 17/07 Q1011 RMK BLU=

Extra information for LKNA:More info

Metar Taf Metar & Taf Last 4 Metars F.Rules Stats Wind Profile Meteogram Temp Stats Airport Information Weather charts Add Link Nearby VenuesMetar ALERT Operation Metar Decoded Social comments